createdAt,value
2023-02-24T00:00:34.067Z,67.00
2023-02-24T00:03:21.917Z,67.60
2023-02-24T00:06:11.933Z,67.30
2023-02-24T00:08:57.977Z,67.50
2023-02-24T00:11:50.098Z,67.30
2023-02-24T00:14:37.570Z,67.20
2023-02-24T00:17:27.759Z,66.40
2023-02-24T00:20:13.838Z,66.60
2023-02-24T00:23:00.482Z,65.90
2023-02-24T00:25:45.982Z,65.50
2023-02-24T00:28:31.308Z,65.40
2023-02-24T00:31:19.581Z,65.40
2023-02-24T00:34:07.070Z,65.50
2023-02-24T00:36:54.929Z,65.50
2023-02-24T00:39:41.702Z,64.50
2023-02-24T00:42:27.480Z,64.80
2023-02-24T00:45:13.058Z,64.90
2023-02-24T00:47:58.963Z,65.00
2023-02-24T00:50:44.490Z,63.30
2023-02-24T00:53:30.096Z,64.00
2023-02-24T00:56:18.074Z,62.30
2023-02-24T00:59:03.670Z,63.10
2023-02-24T01:01:52.037Z,60.90
2023-02-24T01:04:37.819Z,59.90
2023-02-24T01:07:25.893Z,59.60
2023-02-24T01:10:12.302Z,58.00
2023-02-24T01:13:00.443Z,58.20
2023-02-24T01:15:45.713Z,57.30
2023-02-24T01:18:31.614Z,57.20
2023-02-24T01:21:19.783Z,57.00
2023-02-24T01:24:10.589Z,55.70
2023-02-24T01:27:04.350Z,56.00
2023-02-24T01:29:49.835Z,56.20
2023-02-24T01:32:35.626Z,55.40
2023-02-24T01:35:25.626Z,54.70
2023-02-24T01:38:11.520Z,54.30
2023-02-24T01:40:59.291Z,53.20
2023-02-24T01:43:58.781Z,53.00
2023-02-24T01:46:46.544Z,52.30
2023-02-24T01:49:41.157Z,53.10
2023-02-24T01:52:34.445Z,52.10
2023-02-24T01:55:29.344Z,52.00
2023-02-24T01:58:21.745Z,51.30
2023-02-24T02:01:09.601Z,51.60
2023-02-24T02:04:03.012Z,49.30
2023-02-24T02:06:48.958Z,49.50
2023-02-24T02:09:37.051Z,48.40
2023-02-24T02:12:24.770Z,48.40
2023-02-24T02:15:15.187Z,48.60
2023-02-24T02:18:09.761Z,48.40
2023-02-24T02:21:33.396Z,48.30
2023-02-24T02:24:32.977Z,48.30
2023-02-24T02:27:50.592Z,48.30
2023-02-24T02:30:59.287Z,48.20
2023-02-24T02:34:09.745Z,48.10
2023-02-24T02:37:14.962Z,47.70
2023-02-24T02:40:23.125Z,48.00
2023-02-24T02:43:25.926Z,47.70
2023-02-24T02:46:17.738Z,47.10
2023-02-24T02:49:13.195Z,44.90
2023-02-24T02:52:07.478Z,45.40
2023-02-24T02:55:25.217Z,44.10
2023-02-24T02:58:17.667Z,43.80
2023-02-24T03:01:07.224Z,42.10
2023-02-24T03:03:59.527Z,41.70
2023-02-24T03:06:53.141Z,41.70
2023-02-24T03:09:44.303Z,41.90
2023-02-24T03:12:32.908Z,41.90
2023-02-24T03:15:21.104Z,41.80
2023-02-24T03:18:12.175Z,41.50
2023-02-24T03:21:17.799Z,42.40
2023-02-24T03:24:09.423Z,42.40
2023-02-24T03:27:24.500Z,42.20
2023-02-24T03:30:21.967Z,42.40
2023-02-24T03:33:18.137Z,42.40
2023-02-24T03:36:03.842Z,42.40
2023-02-24T03:38:49.944Z,42.60
2023-02-24T03:41:58.529Z,42.50
2023-02-24T03:44:45.465Z,42.50
2023-02-24T03:47:32.986Z,42.50
2023-02-24T03:50:21.993Z,42.50
2023-02-24T03:53:30.665Z,42.50
2023-02-24T03:56:33.165Z,42.70
2023-02-24T03:59:23.724Z,42.60
2023-02-24T04:02:22.514Z,42.50
2023-02-24T04:05:11.094Z,42.40
2023-02-24T04:08:04.057Z,42.70
2023-02-24T04:11:05.327Z,42.20
2023-02-24T04:13:58.917Z,42.40
2023-02-24T04:16:54.140Z,42.50
2023-02-24T04:19:43.578Z,42.50
2023-02-24T04:22:30.537Z,42.60
2023-02-24T04:25:24.850Z,42.90
2023-02-24T04:28:12.037Z,42.40
2023-02-24T04:31:10.698Z,42.10
2023-02-24T04:33:56.326Z,41.60
2023-02-24T04:39:52.833Z,41.00
2023-02-24T04:42:46.509Z,42.00
2023-02-24T04:45:32.623Z,42.20
2023-02-24T04:48:20.339Z,42.50
2023-02-24T04:51:06.423Z,42.40
2023-02-24T04:53:55.398Z,42.50
2023-02-24T04:56:41.635Z,42.50
2023-02-24T04:59:30.502Z,42.00
2023-02-24T05:02:19.658Z,41.90
2023-02-24T05:05:08.105Z,41.90
2023-02-24T05:08:02.896Z,41.20
2023-02-24T05:10:48.894Z,41.30
2023-02-24T05:13:34.736Z,40.90
2023-02-24T05:16:20.512Z,40.60
2023-02-24T05:19:24.263Z,40.80
2023-02-24T05:22:11.618Z,41.00
2023-02-24T05:24:57.185Z,40.80
2023-02-24T05:27:43.393Z,40.50
2023-02-24T05:30:28.679Z,40.60
2023-02-24T05:33:14.339Z,40.30
2023-02-24T05:36:08.613Z,40.40
2023-02-24T05:38:57.938Z,40.70
2023-02-24T05:41:50.325Z,41.00
2023-02-24T05:44:35.928Z,41.10
2023-02-24T05:47:23.331Z,41.40
2023-02-24T05:50:13.094Z,41.50
2023-02-24T05:52:58.536Z,41.70
2023-02-24T05:55:44.007Z,41.90
2023-02-24T05:58:32.663Z,42.00
2023-02-24T06:01:19.271Z,41.70
2023-02-24T06:04:07.680Z,41.70
2023-02-24T06:06:52.931Z,40.70
2023-02-24T06:09:45.029Z,40.80
2023-02-24T06:12:35.095Z,40.50
2023-02-24T06:15:22.871Z,39.70
2023-02-24T06:18:11.595Z,40.20
2023-02-24T06:20:57.118Z,40.40
2023-02-24T06:23:42.602Z,40.80
2023-02-24T06:26:33.758Z,40.90
2023-02-24T06:29:21.636Z,40.60
2023-02-24T06:32:09.890Z,40.70
2023-02-24T06:34:57.461Z,41.00
2023-02-24T06:37:43.620Z,41.10
2023-02-24T06:40:28.791Z,41.20
2023-02-24T06:43:14.016Z,41.20
2023-02-24T06:46:01.839Z,41.00
2023-02-24T06:48:48.417Z,40.40
2023-02-24T06:51:36.322Z,39.90
2023-02-24T06:54:22.894Z,39.50
2023-02-24T06:57:09.836Z,38.80
2023-02-24T06:59:56.164Z,38.10
2023-02-24T07:02:44.185Z,38.10
2023-02-24T07:05:34.316Z,37.80
2023-02-24T07:08:27.309Z,37.80
2023-02-24T07:11:14.097Z,37.80
2023-02-24T07:14:00.215Z,35.90
2023-02-24T07:16:45.893Z,36.00
2023-02-24T07:19:34.484Z,35.30
2023-02-24T07:22:25.231Z,35.50
2023-02-24T07:25:30.463Z,35.80
2023-02-24T07:28:19.132Z,35.50
2023-02-24T07:31:14.073Z,35.40
2023-02-24T07:34:02.212Z,35.00
2023-02-24T07:36:50.950Z,34.30
2023-02-24T07:39:39.102Z,34.10
2023-02-24T07:42:25.430Z,33.30
2023-02-24T07:45:11.400Z,31.30
2023-02-24T07:47:57.251Z,31.90
2023-02-24T07:50:43.590Z,29.70
2023-02-24T07:53:29.225Z,28.50
2023-02-24T07:56:17.732Z,29.20
2023-02-24T07:59:11.104Z,29.10
2023-02-24T08:01:57.049Z,28.50
2023-02-24T08:04:50.122Z,28.20
2023-02-24T08:07:40.189Z,27.90
2023-02-24T08:10:25.635Z,27.80
2023-02-24T08:13:11.988Z,27.90
2023-02-24T08:16:00.318Z,27.80
2023-02-24T08:18:57.816Z,27.90
2023-02-24T08:21:50.481Z,27.50
2023-02-24T08:24:35.983Z,27.70
2023-02-24T08:27:25.937Z,28.00
2023-02-24T08:30:25.072Z,28.10
2023-02-24T08:33:16.929Z,28.10
2023-02-24T08:36:02.705Z,28.20
2023-02-24T08:38:52.278Z,27.80
2023-02-24T08:41:45.985Z,28.30
2023-02-24T08:44:31.574Z,27.20
2023-02-24T08:47:21.123Z,27.00
2023-02-24T08:50:10.762Z,27.40
2023-02-24T08:52:56.410Z,26.90
2023-02-24T08:55:42.826Z,25.90
2023-02-24T08:58:28.115Z,25.60
2023-02-24T09:01:25.133Z,25.50
2023-02-24T09:04:19.119Z,25.20
2023-02-24T09:07:12.109Z,24.80
2023-02-24T09:09:59.796Z,25.80
2023-02-24T09:12:45.910Z,26.00
2023-02-24T09:15:41.410Z,26.30
2023-02-24T09:18:30.392Z,25.70
2023-02-24T09:21:35.965Z,27.00
2023-02-24T09:24:27.210Z,26.40
2023-02-24T09:27:17.251Z,26.70
2023-02-24T09:30:08.136Z,26.80
2023-02-24T09:33:01.142Z,26.60
2023-02-24T09:36:10.824Z,27.00
2023-02-24T09:39:02.127Z,27.20
2023-02-24T09:42:07.808Z,26.60
2023-02-24T09:44:57.657Z,25.80
2023-02-24T09:47:55.050Z,25.50
2023-02-24T09:51:04.548Z,26.00
2023-02-24T09:53:56.663Z,25.80
2023-02-24T09:57:09.676Z,26.00
2023-02-24T10:00:23.663Z,25.50
2023-02-24T10:03:41.132Z,24.60
2023-02-24T10:06:35.395Z,25.00
2023-02-24T10:09:35.509Z,24.70
2023-02-24T10:12:34.114Z,24.60
2023-02-24T10:15:50.157Z,24.70
2023-02-24T10:19:15.030Z,24.70
2023-02-24T10:22:08.200Z,24.00
2023-02-24T10:25:11.021Z,22.90
2023-02-24T10:28:14.991Z,23.60
2023-02-24T10:31:35.949Z,23.10
2023-02-24T10:34:26.475Z,22.10
2023-02-24T10:37:27.594Z,22.60
2023-02-24T10:40:17.474Z,23.10
2023-02-24T10:43:10.536Z,22.80
2023-02-24T10:46:17.025Z,22.60
2023-02-24T10:49:09.493Z,22.30
2023-02-24T10:51:57.351Z,22.80
2023-02-24T10:55:05.259Z,23.70
2023-02-24T10:57:59.276Z,23.70
2023-02-24T11:01:00.980Z,24.20
2023-02-24T11:04:01.689Z,24.70
2023-02-24T11:06:58.079Z,26.00
2023-02-24T11:09:52.888Z,26.90
2023-02-24T11:13:10.396Z,27.60
2023-02-24T11:16:14.749Z,29.30
2023-02-24T11:19:00.351Z,31.00
2023-02-24T11:21:50.432Z,33.20
2023-02-24T11:24:38.520Z,35.10
2023-02-24T11:27:26.436Z,35.50
2023-02-24T11:30:21.657Z,37.30
2023-02-24T11:33:30.858Z,39.70
2023-02-24T11:36:44.522Z,42.30
2023-02-24T11:39:53.989Z,43.10
2023-02-24T11:42:46.131Z,45.90
2023-02-24T11:45:46.409Z,45.90
2023-02-24T11:48:46.112Z,46.80
2023-02-24T11:51:35.253Z,47.70
2023-02-24T11:54:25.201Z,48.40
2023-02-24T11:57:19.992Z,48.00
2023-02-24T12:00:20.554Z,48.80
2023-02-24T12:03:31.229Z,50.20
2023-02-24T12:06:27.537Z,49.70
2023-02-24T12:09:20.981Z,50.60
2023-02-24T12:12:32.410Z,51.40
2023-02-24T12:15:48.703Z,50.90
2023-02-24T12:18:39.431Z,51.00
2023-02-24T12:21:36.562Z,51.80
2023-02-24T12:24:23.492Z,50.40
2023-02-24T12:27:30.839Z,51.40
2023-02-24T12:30:38.220Z,51.00
2023-02-24T12:33:27.958Z,51.30
2023-02-24T12:36:43.570Z,51.00
2023-02-24T12:39:44.996Z,51.30
2023-02-24T12:42:51.901Z,52.00
2023-02-24T12:46:03.341Z,51.20
2023-02-24T12:49:01.437Z,51.50
2023-02-24T12:51:50.033Z,51.30
2023-02-24T12:54:46.800Z,51.60
2023-02-24T12:58:07.101Z,52.10
2023-02-24T13:01:18.399Z,51.80
2023-02-24T13:04:21.240Z,52.60
2023-02-24T13:07:29.798Z,52.80
2023-02-24T13:10:28.663Z,52.80
2023-02-24T13:13:53.271Z,52.00
2023-02-24T13:16:39.164Z,52.10
2023-02-24T13:19:25.855Z,52.70
2023-02-24T13:22:15.482Z,53.60
2023-02-24T13:25:23.540Z,54.10
2023-02-24T13:28:38.689Z,54.20
2023-02-24T13:31:26.585Z,54.50
2023-02-24T13:34:42.033Z,54.60
2023-02-24T13:37:39.690Z,55.00
2023-02-24T13:40:27.206Z,55.50
2023-02-24T13:43:33.148Z,75.20
2023-02-24T13:46:19.955Z,61.40
2023-02-24T13:49:29.985Z,61.60
2023-02-24T13:52:36.466Z,61.50
2023-02-24T13:56:17.159Z,60.40
2023-02-24T13:59:14.555Z,61.60
2023-02-24T14:02:14.430Z,60.10
2023-02-24T14:05:08.641Z,61.30
2023-02-24T14:07:55.764Z,61.60
2023-02-24T14:10:45.950Z,61.00
2023-02-24T14:13:34.328Z,60.90
2023-02-24T14:16:26.535Z,59.90
2023-02-24T14:19:16.242Z,60.00
2023-02-24T14:22:01.767Z,59.40
2023-02-24T14:24:48.853Z,58.50
2023-02-24T14:27:34.522Z,59.40
2023-02-24T14:30:40.229Z,59.20
2023-02-24T14:33:31.732Z,59.10
2023-02-24T14:36:24.637Z,59.30
2023-02-24T14:39:31.759Z,58.90
2023-02-24T14:42:17.613Z,59.10
2023-02-24T14:45:03.475Z,58.50
2023-02-24T14:47:49.143Z,58.60
2023-02-24T14:50:34.852Z,59.20
2023-02-24T14:53:23.732Z,58.40
2023-02-24T14:56:13.247Z,59.30
2023-02-24T14:59:09.212Z,61.00
2023-02-24T15:01:57.917Z,61.90
2023-02-24T15:04:47.199Z,60.80
2023-02-24T15:07:34.874Z,61.80
2023-02-24T15:10:23.816Z,62.00
2023-02-24T15:13:17.317Z,60.90
2023-02-24T15:16:14.738Z,62.60
2023-02-24T15:19:01.647Z,62.50
2023-02-24T15:21:47.499Z,62.20
2023-02-24T15:24:35.105Z,62.20
2023-02-24T15:27:24.792Z,61.20
2023-02-24T15:30:36.396Z,61.50
2023-02-24T15:33:27.168Z,61.10
2023-02-24T15:36:21.314Z,61.90
2023-02-24T15:39:11.849Z,61.60
2023-02-24T15:42:15.442Z,62.30
2023-02-24T15:45:32.142Z,62.30
2023-02-24T15:48:28.768Z,61.50
2023-02-24T15:51:24.573Z,62.10
2023-02-24T15:54:19.979Z,62.00
2023-02-24T15:57:06.022Z,61.30
2023-02-24T15:59:51.675Z,61.90
2023-02-24T16:02:37.198Z,61.30
2023-02-24T16:05:23.128Z,60.90
2023-02-24T16:08:17.842Z,62.00
2023-02-24T16:11:03.235Z,61.30
2023-02-24T16:13:55.684Z,60.90
2023-02-24T16:16:41.582Z,61.10
2023-02-24T16:19:27.439Z,60.80
2023-02-24T16:22:15.230Z,60.70
2023-02-24T16:25:01.298Z,60.30
2023-02-24T16:27:46.986Z,60.70
2023-02-24T16:30:32.563Z,60.40
2023-02-24T16:33:22.465Z,60.60
2023-02-24T16:36:13.386Z,60.80
2023-02-24T16:39:01.428Z,60.50
2023-02-24T16:41:47.204Z,60.70
2023-02-24T16:44:32.760Z,60.40
2023-02-24T16:47:22.682Z,61.00
2023-02-24T16:50:17.863Z,60.80
2023-02-24T16:53:03.489Z,61.00
2023-02-24T16:55:49.752Z,60.20
2023-02-24T16:58:36.294Z,60.20
2023-02-24T17:01:22.869Z,59.90
2023-02-24T17:15:42.624Z,59.90
2023-02-24T17:18:28.070Z,59.80
2023-02-24T17:21:14.929Z,60.60
2023-02-24T17:24:00.642Z,60.30
2023-02-24T17:26:46.634Z,60.20
2023-02-24T17:29:32.381Z,60.30
2023-02-24T17:32:18.051Z,60.70
2023-02-24T17:35:03.720Z,60.60
2023-02-24T17:37:49.065Z,60.10
2023-02-24T17:40:34.396Z,60.30
2023-02-24T17:43:22.562Z,60.60
2023-02-24T17:46:13.102Z,60.60
2023-02-24T17:49:00.293Z,60.30
2023-02-24T17:51:45.823Z,60.60
2023-02-24T17:54:31.274Z,60.60
2023-02-24T17:57:16.624Z,60.70
2023-02-24T18:00:02.912Z,60.60
2023-02-24T18:02:48.577Z,60.60
2023-02-24T18:05:33.910Z,61.00
2023-02-24T18:08:19.479Z,60.90
2023-02-24T18:11:06.364Z,60.40
2023-02-24T18:13:52.747Z,60.60
2023-02-24T18:16:38.613Z,61.10
2023-02-24T18:19:26.890Z,60.40
2023-02-24T18:22:16.925Z,60.40
2023-02-24T18:25:02.304Z,60.70
2023-02-24T18:27:47.640Z,60.70
2023-02-24T18:30:33.124Z,60.30
2023-02-24T18:33:19.037Z,60.10
2023-02-24T18:36:05.731Z,60.10
2023-02-24T18:38:58.152Z,60.10
2023-02-24T18:41:43.776Z,60.40
2023-02-24T18:44:31.445Z,60.00
2023-02-24T18:47:16.690Z,60.40
2023-02-24T18:50:02.359Z,60.00
2023-02-24T18:52:48.137Z,59.90
2023-02-24T18:55:35.839Z,59.80
2023-02-24T18:58:23.290Z,59.80
2023-02-24T19:01:24.567Z,59.80
2023-02-24T19:04:11.546Z,60.00
2023-02-24T19:06:56.994Z,60.20
2023-02-24T19:09:43.627Z,60.40
2023-02-24T19:12:29.343Z,60.40
2023-02-24T19:15:15.125Z,60.30
2023-02-24T19:18:01.206Z,60.20
2023-02-24T19:20:46.778Z,60.10
2023-02-24T19:23:35.317Z,60.00
2023-02-24T19:26:28.505Z,59.60
2023-02-24T19:29:14.112Z,59.80
2023-02-24T19:32:00.093Z,59.50
2023-02-24T19:34:46.912Z,59.60
2023-02-24T19:37:32.954Z,59.30
2023-02-24T19:40:18.955Z,59.30
2023-02-24T19:43:04.584Z,59.20
2023-02-24T19:45:52.098Z,58.90
2023-02-24T19:48:38.455Z,59.70
2023-02-24T19:51:24.667Z,60.10
2023-02-24T19:54:12.317Z,60.80
2023-02-24T19:56:58.199Z,62.90
2023-02-24T19:59:44.720Z,62.30
2023-02-24T20:02:30.383Z,62.30
2023-02-24T20:05:16.083Z,62.00
2023-02-24T20:08:01.633Z,61.90
2023-02-24T20:11:01.609Z,61.70
2023-02-24T20:13:52.563Z,61.50
2023-02-24T20:16:47.413Z,62.00
2023-02-24T20:19:34.393Z,62.30
2023-02-24T20:22:22.546Z,62.60
2023-02-24T20:25:08.905Z,62.40
2023-02-24T20:27:57.479Z,62.30
2023-02-24T20:30:42.967Z,62.90
2023-02-24T20:33:28.727Z,62.10
2023-02-24T20:36:18.678Z,61.70
2023-02-24T20:39:08.228Z,62.20
2023-02-24T20:41:54.819Z,62.10
2023-02-24T20:44:40.645Z,63.10
2023-02-24T20:47:26.505Z,63.30
2023-02-24T20:50:11.881Z,64.20
2023-02-24T20:52:57.655Z,65.50
2023-02-24T20:55:45.125Z,66.30
2023-02-24T20:58:30.539Z,67.00
2023-02-24T21:01:38.195Z,65.70
2023-02-24T21:04:26.037Z,66.50
2023-02-24T21:07:11.704Z,66.90
2023-02-24T21:09:57.520Z,67.70
2023-02-24T21:12:43.031Z,68.80
2023-02-24T21:15:33.443Z,69.60
2023-02-24T21:18:24.946Z,70.20
2023-02-24T21:21:10.804Z,71.20
2023-02-24T21:23:56.721Z,70.60
2023-02-24T21:26:42.237Z,70.00
2023-02-24T21:29:32.771Z,68.30
2023-02-24T21:32:21.013Z,68.20
2023-02-24T21:35:06.584Z,68.10
2023-02-24T21:37:53.912Z,67.10
2023-02-24T21:40:40.576Z,67.20
2023-02-24T21:43:26.646Z,67.20
2023-02-24T21:46:13.873Z,65.40
2023-02-24T21:49:02.070Z,66.10
2023-02-24T21:51:51.954Z,65.30
2023-02-24T21:54:37.726Z,65.50
2023-02-24T21:57:23.233Z,64.70
2023-02-24T22:00:18.346Z,64.50
2023-02-24T22:03:04.044Z,64.30
2023-02-24T22:05:53.649Z,63.40
2023-02-24T22:08:45.811Z,63.40
2023-02-24T22:11:35.186Z,64.00
2023-02-24T22:14:21.348Z,64.50
2023-02-24T22:17:06.649Z,63.40
2023-02-24T22:19:52.174Z,63.60
2023-02-24T22:22:39.561Z,64.30
2023-02-24T22:25:24.903Z,64.10
2023-02-24T22:28:10.500Z,63.40
2023-02-24T22:30:58.662Z,63.40
2023-02-24T22:33:45.791Z,63.50
2023-02-24T22:36:35.124Z,63.90
2023-02-24T22:39:20.706Z,64.10
2023-02-24T22:42:07.671Z,63.40
2023-02-24T22:44:53.821Z,63.30
2023-02-24T22:47:39.149Z,63.30
2023-02-24T22:50:25.883Z,62.40
2023-02-24T22:53:11.526Z,62.30
2023-02-24T22:55:59.934Z,62.20
2023-02-24T22:58:47.630Z,61.90
2023-02-24T23:01:36.148Z,62.00
2023-02-24T23:04:24.293Z,62.00
2023-02-24T23:07:10.311Z,61.70
2023-02-24T23:09:56.343Z,61.80
2023-02-24T23:12:42.138Z,61.50
2023-02-24T23:15:27.577Z,61.50
2023-02-24T23:18:13.971Z,60.90
2023-02-24T23:21:01.288Z,60.90
2023-02-24T23:23:48.527Z,59.50
2023-02-24T23:26:40.623Z,59.50
2023-02-24T23:29:27.078Z,59.70
2023-02-24T23:32:12.761Z,58.80
2023-02-24T23:35:01.128Z,58.30
2023-02-24T23:37:46.519Z,58.30
2023-02-24T23:40:44.388Z,58.30
2023-02-24T23:43:34.880Z,58.50
2023-02-24T23:46:21.535Z,60.30
2023-02-24T23:49:07.633Z,60.60
2023-02-24T23:51:53.248Z,60.50
2023-02-24T23:54:38.823Z,60.60
2023-02-24T23:57:24.277Z,61.00
